createdAt,value
2023-02-17T00:00:29.074Z,80.15
2023-02-17T00:02:58.147Z,79.63
2023-02-17T00:05:26.120Z,87.55
2023-02-17T00:07:54.124Z,86.68
2023-02-17T00:10:22.218Z,85.03
2023-02-17T00:12:50.086Z,84.90
2023-02-17T00:15:19.330Z,90.68
2023-02-17T00:17:47.236Z,81.40
2023-02-17T00:20:15.129Z,84.35
2023-02-17T00:22:43.031Z,81.65
2023-02-17T00:25:10.965Z,94.25
2023-02-17T00:27:38.934Z,84.70
2023-02-17T00:30:09.251Z,80.95
2023-02-17T00:32:38.964Z,81.88
2023-02-17T00:35:08.107Z,81.30
2023-02-17T00:37:36.346Z,85.13
2023-02-17T00:40:04.699Z,82.60
2023-02-17T00:42:34.850Z,82.22
2023-02-17T00:45:02.740Z,81.03
2023-02-17T00:47:30.587Z,79.22
2023-02-17T00:49:59.996Z,81.28
2023-02-17T00:52:28.545Z,86.30
2023-02-17T00:54:56.412Z,80.63
2023-02-17T00:57:24.869Z,81.93
2023-02-17T00:59:52.832Z,83.53
2023-02-17T01:02:20.672Z,89.07
2023-02-17T01:04:48.527Z,86.30
2023-02-17T01:07:18.256Z,83.82
2023-02-17T01:09:47.969Z,89.57
2023-02-17T01:12:15.994Z,86.90
2023-02-17T01:14:43.826Z,101.10
2023-02-17T01:17:11.781Z,92.72
2023-02-17T01:19:39.619Z,90.82
2023-02-17T01:22:07.475Z,96.32
2023-02-17T01:24:37.282Z,94.72
2023-02-17T01:27:05.294Z,90.40
2023-02-17T01:29:33.136Z,95.68
2023-02-17T01:32:01.043Z,96.38
2023-02-17T01:34:29.346Z,92.40
2023-02-17T01:36:57.276Z,88.03
2023-02-17T01:39:25.172Z,98.93
2023-02-17T01:41:54.401Z,87.40
2023-02-17T01:44:23.218Z,93.10
2023-02-17T01:46:51.880Z,88.72
2023-02-17T01:49:38.331Z,97.43
2023-02-17T01:52:09.478Z,89.03
2023-02-17T01:54:38.824Z,91.22
2023-02-17T01:57:12.027Z,92.03
2023-02-17T01:59:41.272Z,93.05
2023-02-17T02:02:09.566Z,89.38
2023-02-17T02:04:39.166Z,95.25
2023-02-17T02:07:11.523Z,89.00
2023-02-17T02:09:41.347Z,92.85
2023-02-17T02:12:19.974Z,86.30
2023-02-17T02:14:48.433Z,91.55
2023-02-17T02:17:20.611Z,85.38
2023-02-17T02:19:59.488Z,90.35
2023-02-17T02:22:51.045Z,86.25
2023-02-17T02:25:28.712Z,93.65
2023-02-17T02:28:04.120Z,86.65
2023-02-17T02:30:44.889Z,94.50
2023-02-17T02:33:18.143Z,95.03
2023-02-17T02:35:52.262Z,90.07
2023-02-17T02:38:23.475Z,83.38
2023-02-17T02:40:53.690Z,91.40
2023-02-17T02:43:22.165Z,88.20
2023-02-17T02:45:50.039Z,92.65
2023-02-17T02:48:26.125Z,84.82
2023-02-17T02:51:03.255Z,90.13
2023-02-17T02:53:50.297Z,87.90
2023-02-17T02:56:25.044Z,92.97
2023-02-17T02:58:58.965Z,86.70
2023-02-17T03:01:30.339Z,87.30
2023-02-17T03:04:05.534Z,85.07
2023-02-17T03:06:38.539Z,90.53
2023-02-17T03:09:08.117Z,85.57
2023-02-17T03:11:36.149Z,87.38
2023-02-17T03:14:06.075Z,83.75
2023-02-17T03:16:35.084Z,86.45
2023-02-17T03:19:04.680Z,84.38
2023-02-17T03:21:35.371Z,83.50
2023-02-17T03:24:03.303Z,80.97
2023-02-17T03:26:31.238Z,80.75
2023-02-17T03:28:59.215Z,75.25
2023-02-17T03:31:29.042Z,80.97
2023-02-17T03:33:59.249Z,82.50
2023-02-17T03:36:30.068Z,73.03
2023-02-17T03:38:58.303Z,75.45
2023-02-17T03:41:26.388Z,72.07
2023-02-17T03:43:54.299Z,76.72
2023-02-17T03:46:23.302Z,73.95
2023-02-17T03:48:51.237Z,72.82
2023-02-17T03:51:19.960Z,77.55
2023-02-17T03:53:49.739Z,84.47
2023-02-17T03:56:18.164Z,80.38
2023-02-17T03:58:46.488Z,79.57
2023-02-17T04:01:15.031Z,86.20
2023-02-17T04:03:43.316Z,77.10
2023-02-17T04:06:11.581Z,75.57
2023-02-17T04:08:39.933Z,78.93
2023-02-17T04:11:09.957Z,73.30
2023-02-17T04:13:38.487Z,75.82
2023-02-17T04:16:08.129Z,75.95
2023-02-17T04:18:36.751Z,74.90
2023-02-17T04:21:05.166Z,83.07
2023-02-17T04:23:33.102Z,90.28
2023-02-17T04:26:01.036Z,74.60
2023-02-17T04:28:30.372Z,82.30
2023-02-17T04:30:59.338Z,81.30
2023-02-17T04:33:31.232Z,73.80
2023-02-17T04:36:00.473Z,69.53
2023-02-17T04:38:29.165Z,66.22
2023-02-17T04:40:57.385Z,63.33
2023-02-17T04:43:25.578Z,72.45
2023-02-17T04:45:55.137Z,67.13
2023-02-17T04:48:23.684Z,73.07
2023-02-17T04:50:51.658Z,74.72
2023-02-17T04:53:19.617Z,69.93
2023-02-17T04:55:49.547Z,76.78
2023-02-17T04:58:17.693Z,74.32
2023-02-17T05:00:47.789Z,79.88
2023-02-17T05:03:17.407Z,82.57
2023-02-17T05:05:45.374Z,79.32
2023-02-17T05:08:13.245Z,79.35
2023-02-17T05:10:41.187Z,78.40
2023-02-17T05:13:09.096Z,78.88
2023-02-17T05:15:37.032Z,69.68
2023-02-17T05:18:05.141Z,77.72
2023-02-17T05:20:34.589Z,78.22
2023-02-17T05:23:02.525Z,81.03
2023-02-17T05:25:30.912Z,77.22
2023-02-17T05:27:58.984Z,80.18
2023-02-17T05:30:26.934Z,76.05
2023-02-17T05:32:54.837Z,78.10
2023-02-17T05:35:22.784Z,82.25
2023-02-17T05:37:52.032Z,74.45
2023-02-17T05:40:20.226Z,68.88
2023-02-17T05:42:48.422Z,73.95
2023-02-17T05:45:16.337Z,64.68
2023-02-17T05:47:44.197Z,67.00
2023-02-17T05:50:12.472Z,68.85
2023-02-17T05:52:40.485Z,69.68
2023-02-17T05:55:09.958Z,73.53
2023-02-17T05:57:38.672Z,75.20
2023-02-17T06:00:10.019Z,72.90
2023-02-17T06:02:40.735Z,78.28
2023-02-17T06:05:09.120Z,69.25
2023-02-17T06:07:37.579Z,66.43
2023-02-17T06:10:05.825Z,73.05
2023-02-17T06:12:35.332Z,74.35
2023-02-17T06:15:03.220Z,73.60
2023-02-17T06:17:31.126Z,72.97
2023-02-17T06:19:59.066Z,80.63
2023-02-17T06:22:27.163Z,81.30
2023-02-17T06:24:55.025Z,82.97
2023-02-17T06:27:23.376Z,89.40
2023-02-17T06:29:52.983Z,89.32
2023-02-17T06:32:20.952Z,90.15
2023-02-17T06:34:49.448Z,88.10
2023-02-17T06:37:17.659Z,84.80
2023-02-17T06:39:45.538Z,81.22
2023-02-17T06:42:13.433Z,81.93
2023-02-17T06:47:12.672Z,80.97
2023-02-17T06:49:41.027Z,76.30
2023-02-17T06:52:09.027Z,75.07
2023-02-17T06:54:36.964Z,106.88
2023-02-17T06:57:04.924Z,92.45
2023-02-17T06:59:32.989Z,78.63
2023-02-17T07:02:02.460Z,67.47
2023-02-17T07:04:32.039Z,73.25
2023-02-17T07:07:00.138Z,67.38
2023-02-17T07:09:30.490Z,77.57
2023-02-17T07:11:58.744Z,76.07
2023-02-17T07:14:27.031Z,75.50
2023-02-17T07:16:55.518Z,109.32
2023-02-17T07:19:23.465Z,101.85
2023-02-17T07:21:52.789Z,103.90
2023-02-17T07:24:20.714Z,100.30
2023-02-17T07:26:49.012Z,105.70
2023-02-17T07:29:16.867Z,113.65
2023-02-17T07:31:44.731Z,111.30
2023-02-17T07:34:13.016Z,120.15
2023-02-17T07:36:40.874Z,117.20
2023-02-17T07:39:10.114Z,90.18
2023-02-17T07:42:03.692Z,101.97
2023-02-17T07:44:34.158Z,112.03
2023-02-17T07:47:02.044Z,102.45
2023-02-17T07:49:29.915Z,94.88
2023-02-17T07:51:57.780Z,112.60
2023-02-17T07:54:27.103Z,96.75
2023-02-17T07:56:55.323Z,115.05
2023-02-17T07:59:23.296Z,82.03
2023-02-17T08:01:51.247Z,80.57
2023-02-17T08:04:19.271Z,84.07
2023-02-17T08:06:47.909Z,89.43
2023-02-17T08:09:33.444Z,80.80
2023-02-17T08:12:20.525Z,88.60
2023-02-17T08:14:48.344Z,75.20
2023-02-17T08:17:16.253Z,68.05
2023-02-17T08:19:48.656Z,82.63
2023-02-17T08:22:17.333Z,81.70
2023-02-17T08:24:45.273Z,71.82
2023-02-17T08:27:14.967Z,61.17
2023-02-17T08:29:43.356Z,63.20
2023-02-17T08:32:11.363Z,70.47
2023-02-17T08:34:39.252Z,57.03
2023-02-17T08:37:07.656Z,60.78
2023-02-17T08:39:36.038Z,58.63
2023-02-17T08:42:04.153Z,55.90
2023-02-17T08:44:34.708Z,52.83
2023-02-17T08:47:02.749Z,50.88
2023-02-17T08:49:32.498Z,52.80
2023-02-17T08:52:00.823Z,61.42
2023-02-17T08:54:29.151Z,57.38
2023-02-17T08:56:58.751Z,53.45
2023-02-17T08:59:26.734Z,54.20
2023-02-17T09:01:56.217Z,52.15
2023-02-17T09:04:24.264Z,48.33
2023-02-17T09:06:57.894Z,50.42
2023-02-17T09:09:27.977Z,47.58
2023-02-17T09:11:56.895Z,49.03
2023-02-17T09:14:25.195Z,44.00
2023-02-17T09:16:55.562Z,46.28
2023-02-17T09:19:25.644Z,43.28
2023-02-17T09:21:53.836Z,47.15
2023-02-17T09:24:21.822Z,50.00
2023-02-17T09:26:50.427Z,51.70
2023-02-17T09:29:18.503Z,48.42
2023-02-17T09:31:46.540Z,44.22
2023-02-17T09:34:17.944Z,46.03
2023-02-17T09:36:47.563Z,38.67
2023-02-17T09:39:15.827Z,37.03
2023-02-17T09:41:45.386Z,40.45
2023-02-17T09:44:18.543Z,41.67
2023-02-17T09:47:00.857Z,39.35
2023-02-17T09:49:32.661Z,37.45
2023-02-17T09:52:04.306Z,44.53
2023-02-17T09:54:36.155Z,50.45
2023-02-17T09:57:04.729Z,39.50
2023-02-17T09:59:37.162Z,41.53
2023-02-17T10:02:08.156Z,33.45
2023-02-17T10:04:39.075Z,37.55
2023-02-17T10:07:11.246Z,44.38
2023-02-17T10:09:45.501Z,39.88
2023-02-17T10:12:19.054Z,44.58
2023-02-17T10:14:49.276Z,43.67
2023-02-17T10:17:21.599Z,43.78
2023-02-17T10:19:54.402Z,55.45
2023-02-17T10:22:24.810Z,53.63
2023-02-17T10:24:54.146Z,49.35
2023-02-17T10:27:29.755Z,41.50
2023-02-17T10:30:06.611Z,52.15
2023-02-17T10:32:49.076Z,55.35
2023-02-17T10:35:18.485Z,55.85
2023-02-17T10:37:49.525Z,48.80
2023-02-17T10:40:21.725Z,60.40
2023-02-17T10:42:51.800Z,68.47
2023-02-17T10:45:24.515Z,62.28
2023-02-17T10:47:53.937Z,67.68
2023-02-17T10:50:23.565Z,61.95
2023-02-17T10:52:53.233Z,73.63
2023-02-17T10:55:23.830Z,70.80
2023-02-17T10:57:55.803Z,80.57
2023-02-17T11:00:26.176Z,75.22
2023-02-17T11:02:54.137Z,77.40
2023-02-17T11:05:23.228Z,75.03
2023-02-17T11:07:55.888Z,84.30
2023-02-17T11:10:24.701Z,78.00
2023-02-17T11:12:52.822Z,86.47
2023-02-17T11:15:21.590Z,78.10
2023-02-17T11:17:50.250Z,73.97
2023-02-17T11:20:33.736Z,75.65
2023-02-17T11:23:05.110Z,81.30
2023-02-17T11:25:34.423Z,72.63
2023-02-17T11:28:03.173Z,74.30
2023-02-17T11:30:32.224Z,82.97
2023-02-17T11:33:04.304Z,75.43
2023-02-17T11:35:46.585Z,78.85
2023-02-17T11:38:17.048Z,73.65
2023-02-17T11:40:53.585Z,80.07
2023-02-17T11:43:21.658Z,78.00
2023-02-17T11:45:54.352Z,70.18
2023-02-17T11:48:33.575Z,84.60
2023-02-17T11:51:04.203Z,77.97
2023-02-17T11:53:43.095Z,72.18
2023-02-17T11:56:14.789Z,81.22
2023-02-17T11:58:54.017Z,88.65
2023-02-17T12:01:31.104Z,92.32
2023-02-17T12:04:11.688Z,87.47
2023-02-17T12:06:43.888Z,86.60
2023-02-17T12:09:19.554Z,97.97
2023-02-17T12:11:52.474Z,84.45
2023-02-17T12:14:26.525Z,87.07
2023-02-17T12:16:59.438Z,99.25
2023-02-17T12:19:37.226Z,88.47
2023-02-17T12:22:11.360Z,83.35
2023-02-17T12:24:48.668Z,93.20
2023-02-17T12:27:24.179Z,83.60
2023-02-17T12:30:01.390Z,95.22
2023-02-17T12:32:36.128Z,101.28
2023-02-17T12:35:06.465Z,88.35
2023-02-17T12:37:39.962Z,103.22
2023-02-17T12:40:16.531Z,107.95
2023-02-17T12:42:46.513Z,110.43
2023-02-17T12:45:18.542Z,114.60
2023-02-17T12:47:52.156Z,103.70
2023-02-17T12:50:22.378Z,112.63
2023-02-17T12:52:53.283Z,98.30
2023-02-17T12:55:23.799Z,110.80
2023-02-17T12:57:56.010Z,102.85
2023-02-17T13:00:26.123Z,95.97
2023-02-17T13:02:58.289Z,111.47
2023-02-17T13:05:28.889Z,100.03
2023-02-17T13:07:59.289Z,94.05
2023-02-17T13:10:33.711Z,94.80
2023-02-17T13:13:03.660Z,100.15
2023-02-17T13:15:33.820Z,94.03
2023-02-17T13:18:03.855Z,94.18
2023-02-17T13:20:52.631Z,86.90
2023-02-17T13:23:32.065Z,91.57
2023-02-17T13:26:08.106Z,103.00
2023-02-17T13:28:37.420Z,90.43
2023-02-17T13:31:16.359Z,92.95
2023-02-17T13:33:45.972Z,89.78
2023-02-17T13:36:15.248Z,97.38
2023-02-17T13:38:52.860Z,95.30
2023-02-17T13:41:22.140Z,96.45
2023-02-17T13:43:50.410Z,99.05
2023-02-17T13:46:21.374Z,93.22
2023-02-17T13:48:59.194Z,93.85
2023-02-17T13:51:28.416Z,93.00
2023-02-17T13:53:56.396Z,88.40
2023-02-17T13:56:28.891Z,87.65
2023-02-17T13:59:07.392Z,87.20
2023-02-17T14:01:37.663Z,88.43
2023-02-17T14:04:06.527Z,87.32
2023-02-17T14:06:37.104Z,90.90
2023-02-17T14:09:13.213Z,92.95
2023-02-17T14:11:42.582Z,93.45
2023-02-17T14:14:12.219Z,86.68
2023-02-17T14:16:40.941Z,93.22
2023-02-17T14:19:10.177Z,89.03
2023-02-17T14:21:41.339Z,91.55
2023-02-17T14:24:11.699Z,89.82
2023-02-17T14:26:41.235Z,90.97
2023-02-17T14:29:12.814Z,90.40
2023-02-17T14:31:42.058Z,98.75
2023-02-17T14:34:15.295Z,91.43
2023-02-17T14:36:43.249Z,89.53
2023-02-17T14:39:15.180Z,100.22
2023-02-17T14:41:43.956Z,104.88
2023-02-17T14:44:13.326Z,94.00
2023-02-17T14:46:41.275Z,100.15
2023-02-17T14:49:09.230Z,92.95
2023-02-17T14:51:38.540Z,97.72
2023-02-17T14:54:13.219Z,104.57
2023-02-17T14:56:42.616Z,89.43
2023-02-17T14:59:11.560Z,92.50
2023-02-17T15:01:42.228Z,84.25
2023-02-17T15:04:10.182Z,87.35
2023-02-17T15:06:40.210Z,86.82
2023-02-17T15:09:10.714Z,95.93
2023-02-17T15:11:38.971Z,89.65
2023-02-17T15:14:07.553Z,82.68
2023-02-17T15:16:35.441Z,83.07
2023-02-17T15:19:04.885Z,90.05
2023-02-17T15:21:33.992Z,82.53
2023-02-17T15:24:02.870Z,97.32
2023-02-17T15:26:31.687Z,81.78
2023-02-17T15:29:00.070Z,87.45
2023-02-17T15:31:31.354Z,88.50
2023-02-17T15:34:00.276Z,77.00
2023-02-17T15:36:30.180Z,83.60
2023-02-17T15:38:58.147Z,79.95
2023-02-17T15:41:30.541Z,82.55
2023-02-17T15:43:59.821Z,83.55
2023-02-17T15:46:29.986Z,82.70
2023-02-17T15:48:57.907Z,82.20
2023-02-17T15:51:25.960Z,88.00
2023-02-17T15:53:56.119Z,89.50
2023-02-17T15:56:25.095Z,84.03
2023-02-17T15:58:53.413Z,90.45
2023-02-17T16:01:27.221Z,88.57
2023-02-17T16:03:55.535Z,86.07
2023-02-17T16:06:23.975Z,81.03
2023-02-17T16:08:52.016Z,85.57
2023-02-17T16:11:22.519Z,87.22
2023-02-17T16:13:51.151Z,81.63
2023-02-17T16:16:21.590Z,77.82
2023-02-17T16:18:50.313Z,84.47
2023-02-17T16:21:19.018Z,76.20
2023-02-17T16:23:47.195Z,78.10
2023-02-17T16:26:24.164Z,85.28
2023-02-17T16:28:54.552Z,77.88
2023-02-17T16:31:22.583Z,82.47
2023-02-17T16:33:51.836Z,85.38
2023-02-17T16:36:21.792Z,79.50
2023-02-17T16:38:51.088Z,83.15
2023-02-17T16:41:21.245Z,87.43
2023-02-17T16:43:49.671Z,93.90
2023-02-17T16:46:23.931Z,87.28
2023-02-17T16:48:54.122Z,88.47
2023-02-17T16:51:22.219Z,96.18
2023-02-17T16:53:50.533Z,88.10
2023-02-17T16:56:21.127Z,83.63
2023-02-17T16:58:49.098Z,79.72
2023-02-17T17:01:17.162Z,91.22
2023-02-17T17:03:46.770Z,89.78
2023-02-17T17:06:18.455Z,83.63
2023-02-17T17:08:46.842Z,86.75
2023-02-17T17:11:15.000Z,91.03
2023-02-17T17:13:43.304Z,91.65
2023-02-17T17:16:13.607Z,90.82
2023-02-17T17:18:43.368Z,97.95
2023-02-17T17:21:14.549Z,92.40
2023-02-17T17:23:42.567Z,93.95
2023-02-17T17:26:15.465Z,107.75
2023-02-17T17:28:43.330Z,101.03
2023-02-17T17:31:11.933Z,97.35
2023-02-17T17:33:39.792Z,89.85
2023-02-17T17:36:12.812Z,93.45
2023-02-17T17:38:42.131Z,91.95
2023-02-17T17:41:12.324Z,84.60
2023-02-17T17:43:40.279Z,110.63
2023-02-17T17:46:12.297Z,108.30
2023-02-17T17:48:40.344Z,95.57
2023-02-17T17:51:08.712Z,111.65
2023-02-17T17:53:36.630Z,100.63
2023-02-17T17:56:10.476Z,94.00
2023-02-17T17:58:39.333Z,95.00
2023-02-17T18:01:07.627Z,93.78
2023-02-17T18:03:35.640Z,97.88
2023-02-17T18:06:04.059Z,91.13
2023-02-17T18:08:32.190Z,106.05
2023-02-17T18:11:00.268Z,91.40
2023-02-17T18:13:29.588Z,89.85
2023-02-17T18:15:57.592Z,93.90
2023-02-17T18:18:25.661Z,98.93
2023-02-17T18:20:53.582Z,97.32
2023-02-17T18:23:21.520Z,105.63
2023-02-17T18:25:49.596Z,100.25
2023-02-17T18:28:17.606Z,89.72
2023-02-17T18:30:47.008Z,95.95
2023-02-17T18:33:15.640Z,91.10
2023-02-17T18:35:45.570Z,94.30
2023-02-17T18:38:13.536Z,92.75
2023-02-17T18:40:41.876Z,95.95
2023-02-17T18:43:10.553Z,86.45
2023-02-17T18:45:38.590Z,86.30
2023-02-17T18:48:08.067Z,87.55
2023-02-17T18:50:36.782Z,98.30
2023-02-17T18:53:05.536Z,87.72
2023-02-17T18:55:33.587Z,109.30
2023-02-17T18:58:01.772Z,87.15
2023-02-17T19:00:29.984Z,87.80
2023-02-17T19:02:58.374Z,86.97
2023-02-17T19:05:28.197Z,82.25
2023-02-17T19:07:57.210Z,86.90
2023-02-17T19:10:25.175Z,87.03
2023-02-17T19:12:53.216Z,90.47
2023-02-17T19:15:21.229Z,94.60
2023-02-17T19:17:51.098Z,92.60
2023-02-17T19:20:19.143Z,86.32
2023-02-17T19:22:48.986Z,92.47
2023-02-17T19:25:17.010Z,87.70
2023-02-17T19:27:45.160Z,79.72
2023-02-17T19:30:13.758Z,88.53
2023-02-17T19:32:41.951Z,90.50
2023-02-17T19:35:11.704Z,94.38
2023-02-17T19:37:39.824Z,104.53
2023-02-17T19:40:10.176Z,96.47
2023-02-17T19:42:40.126Z,101.80
2023-02-17T19:45:08.322Z,93.82
2023-02-17T19:47:36.387Z,107.43
2023-02-17T19:50:04.457Z,93.57
2023-02-17T19:52:32.548Z,97.88
2023-02-17T19:55:00.516Z,107.85
2023-02-17T19:57:30.144Z,97.32
2023-02-17T19:59:58.211Z,98.72
2023-02-17T20:02:26.264Z,91.85
2023-02-17T20:04:54.160Z,94.10
2023-02-17T20:07:22.277Z,91.85
2023-02-17T20:09:50.918Z,90.70
2023-02-17T20:12:19.217Z,91.55
2023-02-17T20:14:49.273Z,97.03
2023-02-17T20:17:17.279Z,99.35
2023-02-17T20:19:45.366Z,96.38
2023-02-17T20:22:13.336Z,105.38
2023-02-17T20:24:42.661Z,98.40
2023-02-17T20:27:11.089Z,97.95
2023-02-17T20:29:39.181Z,97.68
2023-02-17T20:32:08.566Z,101.95
2023-02-17T20:34:37.672Z,94.78
2023-02-17T20:37:06.450Z,108.50
2023-02-17T20:39:35.347Z,107.07
2023-02-17T20:42:03.973Z,108.82
2023-02-17T20:44:32.416Z,110.75
2023-02-17T20:47:02.443Z,110.88
2023-02-17T20:49:31.765Z,108.05
2023-02-17T20:51:59.675Z,111.15
2023-02-17T20:54:27.515Z,108.05
2023-02-17T20:56:57.719Z,100.22
2023-02-17T20:59:25.909Z,98.88
2023-02-17T21:01:53.876Z,88.20
2023-02-17T21:04:21.813Z,95.25
2023-02-17T21:06:51.867Z,85.97
2023-02-17T21:09:20.200Z,83.82
2023-02-17T21:11:48.181Z,77.60
2023-02-17T21:14:16.212Z,73.93
2023-02-17T21:16:44.150Z,79.57
2023-02-17T21:19:12.083Z,80.78
2023-02-17T21:21:41.132Z,81.60
2023-02-17T21:24:10.580Z,75.13
2023-02-17T21:26:38.593Z,78.15
2023-02-17T21:29:06.729Z,86.60
2023-02-17T21:31:35.049Z,72.50
2023-02-17T21:34:02.984Z,78.32
2023-02-17T21:36:31.033Z,77.10
2023-02-17T21:38:59.176Z,82.82
2023-02-17T21:41:31.917Z,84.22
2023-02-17T21:44:18.282Z,73.72
2023-02-17T21:46:46.780Z,77.63
2023-02-17T21:49:14.729Z,68.20
2023-02-17T21:51:42.711Z,79.05
2023-02-17T21:54:11.106Z,56.25
2023-02-17T21:56:40.581Z,54.42
2023-02-17T21:59:09.308Z,55.90
2023-02-17T22:01:37.512Z,58.65
2023-02-17T22:04:06.072Z,46.35
2023-02-17T22:06:36.375Z,49.13
2023-02-17T22:09:05.001Z,54.38
2023-02-17T22:11:33.849Z,52.45
2023-02-17T22:14:04.177Z,48.50
2023-02-17T22:16:33.363Z,51.92
2023-02-17T22:19:01.804Z,49.30
2023-02-17T22:21:29.857Z,46.67
2023-02-17T22:23:58.456Z,49.28
2023-02-17T22:26:26.856Z,43.45
2023-02-17T22:28:55.011Z,48.38
2023-02-17T22:31:25.348Z,45.53
2023-02-17T22:33:54.062Z,43.33
2023-02-17T22:36:23.335Z,42.85
2023-02-17T22:38:52.622Z,46.10
2023-02-17T22:41:21.488Z,48.10
2023-02-17T22:43:50.377Z,45.33
2023-02-17T22:46:19.437Z,46.72
2023-02-17T22:48:49.496Z,45.67
2023-02-17T22:51:18.793Z,47.90
2023-02-17T22:53:46.865Z,46.28
2023-02-17T22:56:14.940Z,43.70
2023-02-17T22:58:43.167Z,40.22
2023-02-17T23:01:12.226Z,43.38
2023-02-17T23:03:40.566Z,33.47
2023-02-17T23:06:12.265Z,37.55
2023-02-17T23:08:40.576Z,34.15
2023-02-17T23:11:09.649Z,39.95
2023-02-17T23:13:38.008Z,37.90
2023-02-17T23:16:07.160Z,39.53
2023-02-17T23:18:36.298Z,41.75
2023-02-17T23:21:08.441Z,43.83
2023-02-17T23:23:37.898Z,65.60
2023-02-17T23:26:06.826Z,41.67
2023-02-17T23:28:35.073Z,46.08
2023-02-17T23:31:03.081Z,38.00
2023-02-17T23:33:31.141Z,38.58
2023-02-17T23:35:58.957Z,38.13
2023-02-17T23:38:26.910Z,38.97
2023-02-17T23:40:56.344Z,41.80
2023-02-17T23:43:24.665Z,37.20
2023-02-17T23:45:56.269Z,35.72
2023-02-17T23:48:24.253Z,35.83
2023-02-17T23:50:56.586Z,35.28
2023-02-17T23:53:24.627Z,29.63
2023-02-17T23:56:04.019Z,38.97
2023-02-17T23:58:32.090Z,29.67
